createdAt,value
2022-08-26T00:01:59.496Z,21.70
2022-08-26T00:05:04.103Z,21.63
2022-08-26T00:08:08.384Z,21.63
2022-08-26T00:11:16.150Z,21.60
2022-08-26T00:14:31.244Z,21.57
2022-08-26T00:17:35.087Z,21.51
2022-08-26T00:20:39.499Z,21.49
2022-08-26T00:23:46.469Z,21.46
2022-08-26T00:26:49.479Z,21.28
2022-08-26T00:29:52.603Z,21.22
2022-08-26T00:32:57.372Z,21.23
2022-08-26T00:36:01.447Z,21.27
2022-08-26T00:39:07.214Z,21.25
2022-08-26T00:42:10.407Z,21.23
2022-08-26T00:45:14.523Z,21.25
2022-08-26T00:48:20.942Z,21.19
2022-08-26T00:51:29.799Z,21.18
2022-08-26T00:54:36.997Z,21.19
2022-08-26T00:57:40.895Z,21.19
2022-08-26T01:00:45.258Z,21.14
2022-08-26T01:03:48.701Z,21.07
2022-08-26T01:06:53.395Z,21.07
2022-08-26T01:09:57.402Z,21.01
2022-08-26T01:13:10.176Z,21.02
2022-08-26T01:16:15.010Z,21.01
2022-08-26T01:19:21.166Z,20.97
2022-08-26T01:22:31.849Z,20.97
2022-08-26T01:25:39.606Z,20.93
2022-08-26T01:28:50.652Z,20.92
2022-08-26T01:31:57.743Z,20.93
2022-08-26T01:35:01.191Z,20.94
2022-08-26T01:38:04.910Z,20.92
2022-08-26T01:41:16.042Z,20.89
2022-08-26T01:44:22.123Z,20.85
2022-08-26T01:47:26.483Z,20.83
2022-08-26T01:50:30.714Z,20.82
2022-08-26T01:53:33.767Z,20.81
2022-08-26T01:56:36.947Z,20.80
2022-08-26T01:59:39.775Z,20.77
2022-08-26T02:02:44.665Z,20.75
2022-08-26T02:06:04.127Z,20.73
2022-08-26T02:09:08.043Z,20.72
2022-08-26T02:12:12.597Z,20.68
2022-08-26T02:15:15.365Z,20.66
2022-08-26T02:18:20.360Z,20.53
2022-08-26T02:21:25.018Z,20.56
2022-08-26T02:24:47.272Z,20.51
2022-08-26T02:27:51.334Z,20.44
2022-08-26T02:30:55.626Z,20.35
2022-08-26T02:34:21.280Z,20.31
2022-08-26T02:37:30.623Z,20.25
2022-08-26T02:40:36.873Z,20.20
2022-08-26T02:43:40.048Z,20.17
2022-08-26T02:46:47.171Z,20.17
2022-08-26T02:49:50.713Z,20.15
2022-08-26T02:52:53.808Z,20.09
2022-08-26T02:55:56.905Z,20.05
2022-08-26T02:58:59.816Z,20.03
2022-08-26T03:02:04.173Z,19.98
2022-08-26T03:05:08.000Z,19.93
2022-08-26T03:08:14.575Z,19.89
2022-08-26T03:11:18.889Z,19.78
2022-08-26T03:14:24.085Z,19.74
2022-08-26T03:17:27.062Z,19.73
2022-08-26T03:20:30.217Z,19.74
2022-08-26T03:23:33.922Z,19.72
2022-08-26T03:26:38.061Z,19.72
2022-08-26T03:30:00.330Z,19.69
2022-08-26T03:33:04.826Z,19.67
2022-08-26T03:36:08.043Z,19.59
2022-08-26T03:39:12.090Z,19.58
2022-08-26T03:42:16.783Z,19.56
2022-08-26T03:45:21.203Z,19.54
2022-08-26T03:48:23.886Z,19.49
2022-08-26T03:51:28.296Z,19.48
2022-08-26T03:54:31.773Z,19.42
2022-08-26T03:57:37.251Z,19.44
2022-08-26T04:00:41.147Z,19.44
2022-08-26T04:04:01.727Z,19.44
2022-08-26T04:07:06.319Z,19.44
2022-08-26T04:10:11.713Z,19.44
2022-08-26T04:13:16.282Z,19.49
2022-08-26T04:16:20.229Z,19.49
2022-08-26T05:57:54.566Z,21.56
2022-08-26T06:01:02.850Z,21.69
2022-08-26T08:35:43.356Z,26.15
2022-08-26T08:38:46.973Z,26.33
2022-08-26T08:42:04.449Z,26.28
2022-08-26T08:45:35.915Z,26.67
2022-08-26T08:48:43.653Z,27.03
2022-08-26T08:51:51.354Z,26.94
2022-08-26T08:54:54.704Z,27.22
2022-08-26T08:58:06.626Z,27.35
2022-08-26T09:05:56.183Z,27.51
2022-08-26T09:13:39.451Z,27.75
2022-08-26T09:17:01.487Z,27.96
2022-08-26T09:20:18.256Z,27.79
2022-08-26T09:23:25.244Z,27.92
2022-08-26T09:26:41.138Z,28.24
2022-08-26T09:29:45.762Z,27.92
2022-08-26T09:33:10.218Z,28.05
2022-08-26T09:36:26.591Z,28.21
2022-08-26T09:39:57.078Z,28.54
2022-08-26T09:43:23.238Z,28.49
2022-08-26T09:46:28.303Z,28.67
2022-08-26T09:49:41.110Z,28.50
2022-08-26T09:52:44.812Z,28.59
2022-08-26T09:55:52.744Z,28.59
2022-08-26T09:58:57.144Z,28.74
2022-08-26T10:02:19.265Z,28.76
2022-08-26T10:05:51.277Z,28.93
2022-08-26T10:08:57.143Z,29.22
2022-08-26T10:12:08.359Z,29.13
2022-08-26T10:15:13.819Z,29.18
2022-08-26T10:18:32.073Z,29.49
2022-08-26T10:22:31.499Z,29.86
2022-08-26T10:25:47.913Z,29.99
2022-08-26T10:29:15.030Z,30.28
2022-08-26T10:32:31.857Z,30.25
2022-08-26T10:35:44.971Z,30.33
2022-08-26T10:38:48.218Z,29.66
2022-08-26T10:42:02.992Z,30.35
2022-08-26T10:45:20.049Z,30.41
2022-08-26T10:48:26.372Z,30.71
2022-08-26T10:51:57.552Z,30.94
2022-08-26T10:55:23.344Z,30.91
2022-08-26T10:58:48.387Z,30.43
2022-08-26T11:02:29.783Z,30.92
2022-08-26T11:05:35.571Z,31.14
2022-08-26T11:08:50.114Z,30.67
2022-08-26T11:11:54.012Z,31.13
2022-08-26T11:14:59.354Z,31.24
2022-08-26T11:18:05.812Z,31.70
2022-08-26T11:21:47.621Z,31.50
2022-08-26T11:24:57.196Z,31.19
2022-08-26T11:28:05.543Z,31.60
2022-08-26T11:35:15.135Z,31.57
2022-08-26T11:38:25.964Z,31.96
2022-08-26T11:41:31.417Z,32.37
2022-08-26T11:44:58.165Z,32.49
2022-08-26T11:48:27.214Z,32.53
2022-08-26T11:51:31.874Z,32.29
2022-08-26T11:54:39.956Z,32.10
2022-08-26T11:57:48.094Z,32.93
2022-08-26T12:00:58.811Z,33.24
2022-08-26T12:04:07.569Z,33.78
2022-08-26T12:07:12.122Z,34.33
2022-08-26T12:10:29.396Z,34.40
2022-08-26T12:13:33.109Z,35.61
2022-08-26T12:16:39.329Z,36.52
2022-08-26T12:19:44.057Z,36.86
2022-08-26T12:22:50.496Z,37.80
2022-08-26T12:26:05.557Z,37.37
2022-08-26T12:29:27.199Z,38.95
2022-08-26T12:32:31.701Z,37.00
2022-08-26T12:35:41.998Z,38.28
2022-08-26T12:38:47.263Z,38.13
2022-08-26T12:41:53.376Z,38.81
2022-08-26T12:45:03.727Z,38.83
2022-08-26T12:48:26.441Z,38.70
2022-08-26T12:51:33.306Z,40.03
2022-08-26T12:54:57.026Z,39.68
2022-08-26T12:58:14.451Z,38.36
2022-08-26T13:01:25.109Z,39.92
2022-08-26T13:04:42.450Z,40.89
2022-08-26T13:08:12.598Z,38.50
2022-08-26T13:11:29.193Z,42.53
2022-08-26T13:14:32.930Z,44.01
2022-08-26T13:17:37.359Z,43.48
2022-08-26T13:20:44.470Z,42.09
2022-08-26T13:23:48.227Z,43.51
2022-08-26T13:26:54.108Z,43.19
2022-08-26T13:29:58.266Z,39.74
2022-08-26T13:33:02.202Z,40.56
2022-08-26T13:36:07.777Z,42.41
2022-08-26T13:39:12.382Z,43.92
2022-08-26T13:42:16.088Z,42.13
2022-08-26T13:45:19.986Z,40.77
2022-08-26T13:48:24.759Z,41.16
2022-08-26T13:51:28.919Z,40.05
2022-08-26T13:54:32.029Z,42.03
2022-08-26T13:57:35.957Z,43.89
2022-08-26T14:00:39.837Z,45.87
2022-08-26T14:03:44.917Z,46.74
2022-08-26T14:06:49.108Z,42.46
2022-08-26T14:09:55.044Z,41.93
2022-08-26T14:12:59.580Z,42.39
2022-08-26T14:16:04.799Z,39.88
2022-08-26T14:19:08.596Z,39.70
2022-08-26T14:22:11.844Z,39.81
2022-08-26T14:25:15.239Z,39.83
2022-08-26T14:28:18.512Z,40.36
2022-08-26T14:31:25.515Z,40.26
2022-08-26T14:34:28.913Z,39.68
2022-08-26T14:37:32.019Z,40.96
2022-08-26T14:40:37.637Z,41.73
2022-08-26T14:43:44.002Z,41.98
2022-08-26T14:46:53.489Z,40.84
2022-08-26T14:49:58.050Z,40.97
2022-08-26T14:53:19.767Z,40.92
2022-08-26T14:56:23.421Z,41.03
2022-08-26T14:59:32.045Z,38.45
2022-08-26T15:02:37.362Z,38.54
2022-08-26T15:05:48.105Z,40.62
2022-08-26T15:08:51.982Z,38.32
2022-08-26T15:11:55.614Z,41.62
2022-08-26T15:14:58.830Z,39.92
2022-08-26T15:18:02.626Z,42.13
2022-08-26T15:21:07.699Z,40.27
2022-08-26T15:24:11.656Z,41.79
2022-08-26T15:27:14.879Z,41.79
2022-08-26T15:30:18.583Z,41.29
2022-08-26T15:33:21.671Z,36.79
2022-08-26T15:36:26.867Z,38.11
2022-08-26T15:39:30.793Z,38.66
2022-08-26T15:42:34.021Z,37.64
2022-08-26T15:45:37.822Z,37.75
2022-08-26T15:48:41.077Z,36.66
2022-08-26T15:51:45.334Z,38.86
2022-08-26T15:54:49.684Z,39.50
2022-08-26T15:57:56.215Z,39.95
2022-08-26T16:01:00.747Z,38.15
2022-08-26T16:04:06.047Z,38.70
2022-08-26T16:07:08.904Z,38.64
2022-08-26T16:10:13.468Z,38.40
2022-08-26T16:13:16.707Z,38.17
2022-08-26T16:16:21.765Z,37.93
2022-08-26T16:19:24.786Z,38.08
2022-08-26T16:22:28.593Z,38.70
2022-08-26T16:25:31.951Z,39.27
2022-08-26T16:28:35.095Z,40.14
2022-08-26T16:31:39.721Z,40.48
2022-08-26T16:34:46.934Z,40.88
2022-08-26T16:38:01.175Z,40.18
2022-08-26T16:41:05.036Z,39.63
2022-08-26T16:44:08.965Z,39.99
2022-08-26T16:47:19.070Z,39.54
2022-08-26T16:50:23.560Z,39.20
2022-08-26T16:53:27.057Z,38.35
2022-08-26T16:56:34.125Z,36.95
2022-08-26T16:59:40.675Z,36.35
2022-08-26T17:02:43.985Z,35.31
2022-08-26T17:05:47.144Z,34.43
2022-08-26T17:08:51.074Z,34.19
2022-08-26T17:11:55.323Z,33.41
2022-08-26T17:14:58.219Z,32.85
2022-08-26T17:18:01.894Z,32.25
2022-08-26T17:21:08.543Z,31.78
2022-08-26T17:24:12.467Z,31.37
2022-08-26T17:27:16.787Z,30.99
2022-08-26T17:30:23.439Z,30.72
2022-08-26T17:33:29.484Z,30.38
2022-08-26T17:36:35.211Z,29.93
2022-08-26T17:39:42.756Z,29.71
2022-08-26T17:42:45.992Z,29.57
2022-08-26T17:45:49.577Z,29.40
2022-08-26T17:49:07.868Z,29.06
2022-08-26T17:52:14.533Z,28.90
2022-08-26T17:55:18.841Z,28.86
2022-08-26T17:58:25.036Z,28.69
2022-08-26T18:01:29.544Z,28.52
2022-08-26T18:04:34.639Z,28.46
2022-08-26T18:07:43.779Z,28.37
2022-08-26T18:10:47.722Z,28.26
2022-08-26T18:13:51.310Z,28.11
2022-08-26T18:16:55.831Z,28.04
2022-08-26T18:20:00.913Z,27.95
2022-08-26T18:23:06.028Z,27.87
2022-08-26T18:26:31.777Z,27.73
2022-08-26T18:29:36.204Z,27.72
2022-08-26T18:32:52.157Z,27.66
2022-08-26T18:35:58.947Z,27.67
2022-08-26T18:39:02.210Z,27.75
2022-08-26T18:42:06.725Z,27.65
2022-08-26T18:45:16.264Z,27.71
2022-08-26T18:48:21.323Z,27.66
2022-08-26T18:51:29.859Z,27.62
2022-08-26T18:54:33.334Z,27.61
2022-08-26T18:57:36.390Z,27.57
2022-08-26T19:00:39.581Z,27.60
2022-08-26T19:03:45.018Z,27.52
2022-08-26T19:06:51.068Z,27.50
2022-08-26T19:09:54.779Z,27.44
2022-08-26T19:13:10.037Z,27.29
2022-08-26T19:16:18.888Z,27.18
2022-08-26T19:19:26.474Z,26.98
2022-08-26T19:22:49.750Z,27.04
2022-08-26T19:25:53.471Z,26.95
2022-08-26T19:28:57.164Z,26.94
2022-08-26T19:32:01.250Z,26.84
2022-08-26T19:35:04.663Z,26.83
2022-08-26T19:38:09.794Z,26.83
2022-08-26T19:41:15.664Z,26.84
2022-08-26T19:44:40.222Z,26.83
2022-08-26T19:47:43.704Z,26.82
2022-08-26T19:50:47.387Z,26.72
2022-08-26T19:53:51.290Z,26.76
2022-08-26T19:56:56.254Z,26.73
2022-08-26T20:00:17.810Z,26.73
2022-08-26T20:03:24.824Z,26.77
2022-08-26T20:06:35.160Z,26.71
2022-08-26T20:09:40.649Z,26.68
2022-08-26T20:12:45.129Z,26.65
2022-08-26T20:15:48.900Z,26.64
2022-08-26T20:19:13.681Z,26.65
2022-08-26T20:22:17.872Z,26.65
2022-08-26T20:25:22.046Z,26.60
2022-08-26T20:28:25.666Z,26.62
2022-08-26T20:31:29.529Z,26.48
2022-08-26T20:34:33.188Z,26.39
2022-08-26T20:37:37.882Z,26.28
2022-08-26T20:40:42.412Z,26.28
2022-08-26T20:43:46.404Z,26.20
2022-08-26T20:46:50.825Z,26.21
2022-08-26T20:49:53.964Z,26.15
2022-08-26T20:53:01.237Z,26.15
2022-08-26T20:56:07.318Z,26.14
2022-08-26T21:03:52.882Z,26.13
2022-08-26T21:07:33.745Z,26.11
2022-08-26T21:10:39.237Z,25.98
2022-08-26T21:14:04.076Z,25.72
2022-08-26T21:40:38.958Z,24.12
2022-08-26T21:43:48.166Z,24.19
2022-08-26T22:39:29.337Z,23.76
2022-08-26T22:42:33.905Z,24.01
2022-08-26T22:45:46.942Z,24.20
2022-08-26T22:48:54.002Z,24.38
2022-08-26T22:51:58.719Z,24.00
2022-08-26T22:59:08.886Z,23.69
2022-08-26T23:02:13.625Z,23.51
2022-08-26T23:13:53.353Z,23.00
2022-08-26T23:17:38.699Z,22.81
2022-08-26T23:21:05.295Z,22.78
2022-08-26T23:24:10.673Z,22.70
2022-08-26T23:27:14.190Z,22.75
2022-08-26T23:30:23.388Z,22.73
2022-08-26T23:33:47.845Z,22.71
2022-08-26T23:36:52.845Z,22.67
2022-08-26T23:39:58.877Z,22.61
2022-08-26T23:43:06.806Z,22.61
2022-08-26T23:46:10.629Z,22.51
2022-08-26T23:49:29.515Z,22.43
2022-08-26T23:52:51.545Z,22.41
2022-08-26T23:55:56.781Z,22.33
2022-08-26T23:59:00.968Z,22.25
